createdAt,value
2018-12-09T00:04:13.423Z,10.10
2018-12-09T00:06:52.128Z,10.10
2018-12-09T00:09:32.690Z,10.00
2018-12-09T00:12:20.369Z,9.80
2018-12-09T00:14:57.604Z,10.00
2018-12-09T00:17:30.801Z,9.50
2018-12-09T00:20:04.064Z,9.50
2018-12-09T00:23:04.529Z,9.40
2018-12-09T00:25:46.358Z,9.40
2018-12-09T00:31:21.883Z,9.40
2018-12-09T00:33:56.986Z,9.30
2018-12-09T00:36:42.796Z,9.30
2018-12-09T00:39:40.843Z,9.40
2018-12-09T00:42:23.672Z,9.40
2018-12-09T00:47:49.428Z,9.30
2018-12-09T00:50:24.773Z,9.30
2018-12-09T00:53:04.541Z,9.30
2018-12-09T00:55:38.081Z,9.30
2018-12-09T00:58:12.245Z,9.40
2018-12-09T01:00:55.679Z,9.30
2018-12-09T01:03:32.681Z,9.30
2018-12-09T01:08:54.758Z,9.30
2018-12-09T01:11:29.679Z,9.30
2018-12-09T01:14:04.168Z,9.40
2018-12-09T01:16:39.934Z,9.40
2018-12-09T01:19:12.824Z,9.30
2018-12-09T01:21:44.758Z,9.30
2018-12-09T01:24:24.594Z,9.40
2018-12-09T01:26:59.488Z,9.40
2018-12-09T01:29:34.281Z,9.40
2018-12-09T01:32:08.273Z,9.50
2018-12-09T01:34:40.575Z,9.60
2018-12-09T01:37:18.094Z,9.60
2018-12-09T01:39:59.949Z,9.50
2018-12-09T01:42:36.209Z,9.60
2018-12-09T01:45:10.646Z,9.70
2018-12-09T01:47:44.419Z,9.60
2018-12-09T01:50:24.164Z,9.60
2018-12-09T01:53:02.530Z,9.60
2018-12-09T01:55:36.878Z,9.70
2018-12-09T01:58:16.218Z,9.70
2018-12-09T02:00:56.250Z,9.60
2018-12-09T02:03:36.098Z,9.60
2018-12-09T02:06:10.338Z,9.60
2018-12-09T02:08:42.107Z,9.70
2018-12-09T02:11:14.396Z,9.80
2018-12-09T02:13:46.694Z,9.80
2018-12-09T02:16:19.271Z,9.80
2018-12-09T02:19:03.396Z,9.80
2018-12-09T02:21:39.151Z,9.80
2018-12-09T02:24:16.885Z,9.80
2018-12-09T02:26:50.999Z,9.80
2018-12-09T02:29:24.467Z,9.90
2018-12-09T02:31:56.914Z,10.00
2018-12-09T02:34:31.914Z,9.90
2018-12-09T02:37:03.824Z,9.90
2018-12-09T02:39:36.577Z,9.80
2018-12-09T02:42:12.555Z,9.90
2018-12-09T02:44:47.222Z,9.90
2018-12-09T02:47:25.201Z,9.90
2018-12-09T02:49:57.267Z,9.80
2018-12-09T02:52:31.902Z,9.80
2018-12-09T02:55:12.470Z,9.70
2018-12-09T02:57:45.131Z,9.70
2018-12-09T03:00:15.907Z,9.80
2018-12-09T03:02:48.310Z,9.70
2018-12-09T03:05:22.152Z,9.80
2018-12-09T03:07:53.548Z,9.70
2018-12-09T03:10:24.302Z,9.80
2018-12-09T03:12:57.629Z,9.70
2018-12-09T03:15:29.134Z,9.70
2018-12-09T03:18:05.012Z,9.60
2018-12-09T03:20:40.096Z,9.60
2018-12-09T03:23:11.539Z,9.70
2018-12-09T03:25:43.166Z,9.70
2018-12-09T03:28:16.691Z,9.60
2018-12-09T03:30:48.944Z,9.70
2018-12-09T03:33:20.328Z,9.70
2018-12-09T03:35:52.924Z,9.60
2018-12-09T03:38:25.331Z,9.60
2018-12-09T03:40:55.677Z,9.50
2018-12-09T03:43:26.863Z,9.60
2018-12-09T03:46:00.736Z,9.60
2018-12-09T03:48:33.409Z,9.50
2018-12-09T03:51:03.903Z,9.50
2018-12-09T03:53:35.153Z,9.40
2018-12-09T03:56:08.463Z,9.40
2018-12-09T03:58:40.481Z,9.40
2018-12-09T04:01:12.010Z,9.40
2018-12-09T04:03:42.454Z,9.30
2018-12-09T04:06:13.659Z,9.30
2018-12-09T04:08:47.057Z,9.20
2018-12-09T04:11:20.763Z,9.20
2018-12-09T04:13:54.632Z,9.20
2018-12-09T04:16:26.079Z,9.10
2018-12-09T04:18:58.553Z,9.10
2018-12-09T04:21:30.595Z,9.10
2018-12-09T04:24:02.531Z,9.10
2018-12-09T04:26:33.027Z,9.10
2018-12-09T04:29:06.737Z,9.10
2018-12-09T04:31:39.079Z,9.10
2018-12-09T04:34:14.339Z,9.00
2018-12-09T04:36:48.625Z,9.00
2018-12-09T04:39:22.676Z,9.00
2018-12-09T04:41:54.972Z,9.00
2018-12-09T04:44:32.618Z,8.90
2018-12-09T04:47:05.207Z,8.90
2018-12-09T04:49:38.110Z,8.80
2018-12-09T04:52:10.448Z,8.90
2018-12-09T04:54:41.938Z,8.90
2018-12-09T04:57:12.601Z,8.90
2018-12-09T04:59:52.350Z,9.00
2018-12-09T05:02:23.492Z,9.00
2018-12-09T05:04:56.235Z,9.10
2018-12-09T05:07:27.195Z,9.00
2018-12-09T05:09:58.951Z,9.10
2018-12-09T05:12:29.667Z,9.10
2018-12-09T05:15:04.245Z,9.00
2018-12-09T05:17:38.589Z,9.00
2018-12-09T05:20:12.830Z,9.10
2018-12-09T05:22:46.461Z,9.00
2018-12-09T05:25:20.626Z,9.00
2018-12-09T05:27:52.374Z,9.10
2018-12-09T05:30:24.700Z,9.00
2018-12-09T05:32:57.094Z,9.10
2018-12-09T05:35:29.502Z,9.00
2018-12-09T05:38:01.639Z,9.00
2018-12-09T05:40:37.895Z,9.00
2018-12-09T05:43:11.175Z,8.80
2018-12-09T05:45:43.631Z,8.70
2018-12-09T05:48:16.120Z,8.70
2018-12-09T05:50:46.505Z,8.60
2018-12-09T05:53:19.081Z,8.60
2018-12-09T05:55:53.448Z,8.60
2018-12-09T05:58:33.890Z,8.60
2018-12-09T06:01:05.383Z,8.60
2018-12-09T06:03:37.022Z,8.60
2018-12-09T06:06:08.462Z,8.60
2018-12-09T06:08:42.543Z,8.70
2018-12-09T06:11:16.630Z,8.70
2018-12-09T06:13:50.708Z,8.70
2018-12-09T06:16:24.495Z,8.70
2018-12-09T06:18:55.004Z,8.80
2018-12-09T06:21:27.397Z,8.80
2018-12-09T06:24:02.398Z,8.80
2018-12-09T06:26:36.010Z,8.80
2018-12-09T06:29:06.386Z,8.80
2018-12-09T06:31:38.056Z,8.80
2018-12-09T06:34:09.900Z,8.80
2018-12-09T06:36:40.598Z,8.70
2018-12-09T06:39:11.319Z,8.70
2018-12-09T06:41:42.340Z,8.70
2018-12-09T06:44:12.672Z,8.70
2018-12-09T06:46:44.469Z,8.70
2018-12-09T06:49:14.823Z,8.70
2018-12-09T06:51:45.965Z,8.80
2018-12-09T06:54:16.632Z,8.80
2018-12-09T06:56:47.104Z,8.80
2018-12-09T06:59:19.135Z,8.80
2018-12-09T07:01:51.002Z,8.80
2018-12-09T07:04:25.661Z,8.80
2018-12-09T07:06:59.100Z,8.80
2018-12-09T07:09:30.250Z,8.90
2018-12-09T07:12:07.970Z,8.80
2018-12-09T07:14:40.449Z,8.80
2018-12-09T07:17:11.711Z,8.80
2018-12-09T07:19:47.448Z,8.90
2018-12-09T07:22:22.802Z,8.90
2018-12-09T07:24:58.281Z,8.90
2018-12-09T07:27:33.972Z,8.90
2018-12-09T07:30:06.086Z,8.90
2018-12-09T07:32:38.267Z,8.90
2018-12-09T07:35:09.261Z,8.90
2018-12-09T07:37:39.855Z,8.90
2018-12-09T07:40:11.718Z,8.90
2018-12-09T07:42:47.947Z,8.80
2018-12-09T07:45:21.006Z,9.40
2018-12-09T07:47:53.514Z,8.90
2018-12-09T07:50:27.410Z,8.80
2018-12-09T07:52:57.849Z,8.90
2018-12-09T07:55:30.571Z,8.80
2018-12-09T07:59:20.220Z,8.80
2018-12-09T08:01:53.349Z,8.80
2018-12-09T08:04:25.191Z,8.80
2018-12-09T08:06:55.692Z,8.80
2018-12-09T08:09:29.378Z,8.80
2018-12-09T08:12:02.833Z,8.80
2018-12-09T08:14:33.986Z,8.80
2018-12-09T08:17:07.357Z,8.80
2018-12-09T08:19:41.989Z,8.80
2018-12-09T08:22:13.594Z,8.80
2018-12-09T08:24:45.737Z,8.80
2018-12-09T08:27:17.530Z,8.80
2018-12-09T08:29:48.942Z,8.80
2018-12-09T08:32:20.372Z,8.80
2018-12-09T08:34:53.441Z,8.80
2018-12-09T08:37:26.960Z,8.80
2018-12-09T08:39:59.781Z,8.80
2018-12-09T08:42:33.961Z,8.80
2018-12-09T08:45:07.674Z,8.80
2018-12-09T08:47:40.950Z,8.80
2018-12-09T08:50:13.059Z,8.80
2018-12-09T08:52:44.702Z,8.80
2018-12-09T08:55:25.882Z,8.90
2018-12-09T08:58:10.645Z,8.90
2018-12-09T09:00:44.165Z,9.00
2018-12-09T09:03:17.905Z,9.20
2018-12-09T09:05:53.662Z,9.10
2018-12-09T09:08:25.179Z,9.10
2018-12-09T09:11:01.207Z,9.20
2018-12-09T09:13:40.818Z,9.20
2018-12-09T09:16:16.188Z,9.20
2018-12-09T09:18:50.973Z,9.40
2018-12-09T09:21:42.567Z,9.50
2018-12-09T09:24:23.378Z,11.10
2018-12-09T09:29:48.899Z,12.20
2018-12-09T09:32:28.061Z,11.50
2018-12-09T09:35:05.113Z,10.60
2018-12-09T09:37:37.476Z,10.10
2018-12-09T09:40:17.015Z,9.90
2018-12-09T09:42:58.431Z,9.90
2018-12-09T09:45:38.328Z,9.80
2018-12-09T09:48:17.453Z,9.60
2018-12-09T09:50:58.920Z,9.70
2018-12-09T09:53:45.261Z,9.60
2018-12-09T09:56:21.015Z,9.60
2018-12-09T09:58:56.402Z,9.60
2018-12-09T10:01:43.499Z,9.60
2018-12-09T10:06:34.299Z,9.60
2018-12-09T10:09:13.976Z,9.50
2018-12-09T10:11:59.431Z,9.40
2018-12-09T10:14:44.386Z,9.40
2018-12-09T10:17:54.852Z,9.40
2018-12-09T10:20:50.174Z,9.50
2018-12-09T10:51:27.993Z,9.30
2018-12-09T10:54:12.519Z,7.90
2018-12-09T10:56:57.193Z,7.90
2018-12-09T10:59:34.481Z,7.90
2018-12-09T11:02:29.996Z,8.00
2018-12-09T11:05:04.552Z,7.90
2018-12-09T11:07:50.343Z,8.00
2018-12-09T11:10:36.554Z,7.90
2018-12-09T11:13:28.275Z,7.90
2018-12-09T11:16:15.098Z,7.80
2018-12-09T11:21:40.650Z,7.70
2018-12-09T11:24:24.298Z,7.60
2018-12-09T11:27:04.524Z,7.60
2018-12-09T11:29:49.368Z,7.50
2018-12-09T11:32:59.452Z,7.60
2018-12-09T11:35:45.725Z,7.60
2018-12-09T11:38:31.387Z,7.60
2018-12-09T11:41:12.365Z,7.60
2018-12-09T11:43:58.282Z,7.60
2018-12-09T11:46:50.570Z,7.70
2018-12-09T12:33:24.436Z,8.70
2018-12-09T12:36:14.903Z,8.70
2018-12-09T12:39:07.544Z,8.60
2018-12-09T12:41:42.635Z,8.60
2018-12-09T12:44:32.239Z,8.50
2018-12-09T12:47:16.525Z,8.50
2018-12-09T12:50:21.734Z,8.50
2018-12-09T12:53:14.474Z,8.30
2018-12-09T12:55:49.620Z,8.40
2018-12-09T12:58:30.432Z,8.30
2018-12-09T13:01:09.862Z,8.30
2018-12-09T13:03:52.815Z,8.30
2018-12-09T13:06:38.705Z,8.30
2018-12-09T13:09:29.783Z,8.20
2018-12-09T13:12:13.784Z,8.20
2018-12-09T13:14:48.740Z,8.20
2018-12-09T13:17:22.930Z,8.30
2018-12-09T13:20:03.038Z,8.50
2018-12-09T13:22:39.586Z,8.50
2018-12-09T13:25:27.915Z,8.60
2018-12-09T13:28:06.100Z,8.70
2018-12-09T13:30:47.500Z,8.60
2018-12-09T13:36:20.773Z,8.80
2018-12-09T13:41:50.705Z,8.90
2018-12-09T13:44:26.019Z,9.00
2018-12-09T13:47:12.286Z,8.90
2018-12-09T13:49:45.678Z,8.90
2018-12-09T13:52:26.881Z,8.90
2018-12-09T13:55:03.003Z,9.10
2018-12-09T13:57:51.567Z,9.30
2018-12-09T14:00:36.227Z,9.50
2018-12-09T14:03:18.247Z,9.60
2018-12-09T14:05:56.938Z,9.70
2018-12-09T14:08:50.913Z,9.80
2018-12-09T14:11:29.118Z,9.90
2018-12-09T14:14:17.837Z,9.90
2018-12-09T14:19:41.746Z,9.70
2018-12-09T14:22:26.915Z,9.70
2018-12-09T14:25:13.217Z,9.50
2018-12-09T14:27:56.726Z,9.40
2018-12-09T14:33:41.663Z,9.20
2018-12-09T14:36:24.905Z,9.20
2018-12-09T14:39:11.795Z,9.20
2018-12-09T14:44:49.883Z,9.20
2018-12-09T14:47:39.860Z,9.60
2018-12-09T14:53:23.459Z,9.10
2018-12-09T14:56:02.935Z,9.10
2018-12-09T14:59:15.095Z,9.10
2018-12-09T15:01:49.067Z,9.10
2018-12-09T15:09:40.317Z,9.10
2018-12-09T15:13:54.982Z,9.10
2018-12-09T15:16:49.646Z,9.10
2018-12-09T15:19:34.036Z,9.10
2018-12-09T15:22:40.015Z,9.00
2018-12-09T15:25:32.836Z,9.10
2018-12-09T15:28:24.774Z,9.00
2018-12-09T15:34:01.163Z,8.90
2018-12-09T15:36:45.064Z,8.90
2018-12-09T15:39:26.457Z,8.90
2018-12-09T15:42:08.729Z,8.80
2018-12-09T15:44:54.102Z,8.90
2018-12-09T15:47:35.055Z,8.90
2018-12-09T15:50:14.175Z,8.90
2018-12-09T15:55:29.824Z,8.90
2018-12-09T15:58:17.109Z,8.40
2018-12-09T16:01:16.816Z,8.80
2018-12-09T16:04:00.416Z,8.80
2018-12-09T16:06:44.800Z,8.80
2018-12-09T16:09:28.217Z,8.70
2018-12-09T16:12:09.326Z,8.70
2018-12-09T16:18:23.065Z,8.60
2018-12-09T16:26:57.142Z,8.70
2018-12-09T17:47:13.359Z,8.10
2018-12-09T18:41:41.770Z,8.10
2018-12-09T18:47:26.238Z,8.10
2018-12-09T18:50:26.763Z,8.00
2018-12-09T18:56:29.409Z,8.00
2018-12-09T19:01:55.562Z,7.90
2018-12-09T19:04:40.961Z,7.90
2018-12-09T19:07:27.393Z,7.80
2018-12-09T19:13:00.373Z,7.70
2018-12-09T19:18:48.440Z,7.60
2018-12-09T19:21:42.169Z,7.60
2018-12-09T19:24:23.511Z,7.50
2018-12-09T19:27:14.763Z,7.50
2018-12-09T19:29:56.832Z,7.50
2018-12-09T19:32:49.380Z,7.50
2018-12-09T19:35:25.297Z,7.40
2018-12-09T19:38:05.020Z,7.40
2018-12-09T19:40:51.919Z,7.40
2018-12-09T19:43:40.900Z,7.30
2018-12-09T19:46:16.304Z,7.40
2018-12-09T19:49:06.011Z,7.30
2018-12-09T19:51:51.930Z,7.30
2018-12-09T19:54:44.711Z,7.30
2018-12-09T20:03:34.245Z,7.30
2018-12-09T20:06:16.352Z,7.20
2018-12-09T20:08:57.490Z,7.20
2018-12-09T20:11:43.729Z,7.30
2018-12-09T20:14:30.321Z,7.20
2018-12-09T20:17:21.559Z,7.30
2018-12-09T20:19:59.498Z,7.30
2018-12-09T20:22:43.042Z,7.40
2018-12-09T20:25:28.583Z,7.40
2018-12-09T20:28:18.750Z,7.40
2018-12-09T20:30:57.995Z,7.40
2018-12-09T20:33:38.143Z,7.50
2018-12-09T20:36:18.770Z,7.40
2018-12-09T20:39:08.542Z,7.40
2018-12-09T20:41:46.739Z,7.40
2018-12-09T20:44:40.193Z,7.50
2018-12-09T20:47:30.669Z,7.50
2018-12-09T20:53:17.330Z,7.50
2018-12-09T20:55:59.036Z,7.50
2018-12-09T20:58:50.490Z,7.50
2018-12-09T21:01:41.625Z,7.50
2018-12-09T21:04:19.049Z,7.50
2018-12-09T21:10:07.582Z,7.60
2018-12-09T21:12:50.829Z,7.60
2018-12-09T21:15:45.091Z,7.60
2018-12-09T21:18:27.393Z,7.60
2018-12-09T21:21:16.388Z,7.60
2018-12-09T21:24:06.972Z,7.60
2018-12-09T21:26:59.839Z,7.40
2018-12-09T21:29:54.478Z,7.40
2018-12-09T21:32:35.919Z,7.30
2018-12-09T21:38:11.064Z,7.20
2018-12-09T21:43:58.454Z,7.00
2018-12-09T21:46:48.661Z,7.00
2018-12-09T21:49:29.478Z,6.90
2018-12-09T21:52:26.998Z,7.40
2018-12-09T21:55:12.314Z,6.90
2018-12-09T21:57:54.039Z,6.80
2018-12-09T22:00:33.866Z,6.80
2018-12-09T22:05:54.096Z,6.90
2018-12-09T22:11:52.006Z,7.10
2018-12-09T22:14:34.033Z,7.20
2018-12-09T22:17:07.776Z,7.20
2018-12-09T22:19:54.657Z,7.20
2018-12-09T22:25:20.801Z,7.30
2018-12-09T22:27:55.470Z,7.30
2018-12-09T22:30:27.133Z,7.20
2018-12-09T22:33:03.359Z,7.20
2018-12-09T22:35:39.490Z,7.20
2018-12-09T22:38:16.414Z,7.20
2018-12-09T22:40:53.016Z,7.20
2018-12-09T22:43:36.763Z,7.20
2018-12-09T22:46:09.701Z,7.10
2018-12-09T22:48:51.681Z,7.10
2018-12-09T22:51:25.885Z,7.00
2018-12-09T22:54:07.769Z,6.90
2018-12-09T22:56:56.670Z,6.90
2018-12-09T23:05:09.475Z,6.70
2018-12-09T23:08:01.756Z,6.80
2018-12-09T23:10:42.508Z,6.70
2018-12-09T23:13:20.222Z,6.70
2018-12-09T23:16:08.709Z,6.70
2018-12-09T23:18:40.579Z,6.70
2018-12-09T23:21:17.580Z,6.70
2018-12-09T23:23:55.626Z,6.70
2018-12-09T23:26:32.025Z,6.60
2018-12-09T23:29:07.038Z,6.70
2018-12-09T23:31:45.937Z,6.70
2018-12-09T23:34:18.873Z,6.70
2018-12-09T23:36:52.728Z,6.70
2018-12-09T23:40:29.019Z,6.70
2018-12-09T23:43:04.503Z,6.60
2018-12-09T23:45:40.778Z,6.60
2018-12-09T23:48:19.382Z,6.60
2018-12-09T23:51:03.377Z,6.60
2018-12-09T23:53:42.086Z,6.70
2018-12-09T23:56:19.936Z,6.70
2018-12-09T23:58:52.477Z,6.70
